Time;durP1;ratioP1;P1;durP2;ratioP2;P2;SDS_P1;SDS_P2;PMS_P1;PMS_P2;Temp;Humidity;BMP_temperature;BMP_pressure;BME280_temperature;BME280_humidity;BME280_pressure;Samples;Min_cycle;Max_cycle;Signal;HPM_P1;HPM_P2
2021/09/20 00:02:12;;;;;;;11.35;6.57;;;16.10;99.90;;;;;;5042944;28;20049;-90
2021/09/20 00:04:41;;;;;;;;;;;16.00;99.90;;;;;;5026780;28;20038;-90
2021/09/20 00:07:19;;;;;;;16.38;6.43;;;16.00;99.90;;;;;;5016027;28;19951;-86
2021/09/20 00:10:12;;;;;;;13.68;5.25;;;16.90;99.90;;;;;;5038724;28;20050;-88
2021/09/20 00:12:42;;;;;;;13.88;6.25;;;15.80;99.90;;;;;;5019096;28;20564;-87
2021/09/20 00:15:13;;;;;;;13.77;5.97;;;15.70;99.90;;;;;;5026589;28;20052;-85
2021/09/20 00:17:44;;;;;;;12.88;5.70;;;15.80;99.90;;;;;;5033536;28;20050;-86
2021/09/20 00:20:15;;;;;;;14.25;5.72;;;15.80;99.90;;;;;;5028980;28;20054;-85
2021/09/20 00:22:44;;;;;;;10.48;5.13;;;15.70;99.90;;;;;;5026858;28;20054;-89
2021/09/20 00:25:13;;;;;;;11.80;5.72;;;15.70;99.90;;;;;;5008678;28;20038;-87
2021/09/20 00:27:43;;;;;;;17.67;6.80;;;15.70;99.90;;;;;;5026785;28;20054;-88
2021/09/20 00:30:12;;;;;;;26.65;7.35;;;15.70;99.90;;;;;;4990036;28;20054;-88
2021/09/20 00:32:42;;;;;;;11.73;5.45;;;15.70;99.90;;;;;;5008062;28;20054;-90
2021/09/20 00:35:12;;;;;;;13.48;5.78;;;15.70;99.90;;;;;;5007160;28;20057;-88
2021/09/20 00:37:41;;;;;;;12.30;5.80;;;15.70;99.90;;;;;;5022222;28;20100;-90
2021/09/20 00:40:11;;;;;;;11.23;5.25;;;15.70;99.90;;;;;;5018735;28;20054;-87
2021/09/20 00:42:46;;;;;;;12.07;5.75;;;15.70;99.90;;;;;;4998541;28;20058;-87
2021/09/20 00:45:28;;;;;;;12.20;5.95;;;15.60;99.90;;;;;;4997837;28;20053;-87
2021/09/20 00:48:10;;;;;;;14.93;6.22;;;15.60;99.90;;;;;;4995628;28;20057;-86
2021/09/20 00:50:47;;;;;;;14.93;5.55;;;15.60;99.90;;;;;;5012620;28;20029;-88
2021/09/20 00:53:25;;;;;;;13.68;5.20;;;14.70;99.90;;;;;;5018087;28;20048;-86
2021/09/20 00:55:56;;;;;;;14.38;6.10;;;15.60;99.90;;;;;;5012357;28;20039;-88
2021/09/20 00:58:24;;;;;;;11.75;5.85;;;15.50;99.90;;;;;;5017247;28;20058;-86
2021/09/20 01:01:01;;;;;;;14.95;5.90;;;15.50;99.90;;;;;;5019335;28;20046;-86
2021/09/20 01:03:34;;;;;;;10.10;5.05;;;15.50;99.90;;;;;;5010727;28;20050;-88
2021/09/20 01:06:02;;;;;;;12.77;5.05;;;15.50;99.90;;;;;;5006329;28;20050;-87
2021/09/20 01:08:33;;;;;;;10.73;4.57;;;15.40;99.90;;;;;;5015942;28;20057;-89
2021/09/20 01:11:01;;;;;;;9.70;5.20;;;15.40;99.90;;;;;;5008645;28;20043;-88
2021/09/20 01:13:33;;;;;;;8.32;4.32;;;15.40;99.90;;;;;;5014528;28;20062;-90
2021/09/20 01:16:02;;;;;;;8.40;4.50;;;15.40;99.90;;;;;;5018311;28;20038;-87
2021/09/20 01:18:32;;;;;;;10.90;6.13;;;15.40;99.90;;;;;;4993423;28;20068;-90
2021/09/20 01:21:05;;;;;;;10.40;4.82;;;15.40;99.90;;;;;;5022781;28;20088;-88
2021/09/20 01:23:54;;;;;;;11.10;4.10;;;15.30;99.90;;;;;;5011014;28;20051;-86
2021/09/20 01:27:22;;;;;;;11.00;4.45;;;15.30;99.90;;;;;;4993262;28;20030;-85
2021/09/20 01:29:52;;;;;;;7.00;3.95;;;14.90;99.90;;;;;;5019759;28;20072;-86
2021/09/20 01:32:39;;;;;;;11.15;3.95;;;15.40;99.90;;;;;;5024249;28;20064;-86
2021/09/20 01:35:29;;;;;;;7.95;4.05;;;15.30;99.90;;;;;;5014519;28;20046;-88
2021/09/20 01:38:13;;;;;;;7.13;3.53;;;15.30;99.90;;;;;;4999615;28;20041;-89
2021/09/20 01:40:54;;;;;;;7.75;3.33;;;15.30;99.90;;;;;;5023591;28;20072;-87
2021/09/20 01:43:59;;;;;;;8.95;3.55;;;15.30;99.90;;;;;;5025561;28;20049;-87
2021/09/20 01:47:26;;;;;;;6.63;3.30;;;15.20;99.90;;;;;;4995900;28;20038;-90
2021/09/20 01:50:00;;;;;;;8.23;3.22;;;15.20;99.90;;;;;;4994383;28;20058;-88
2021/09/20 01:52:31;;;;;;;11.20;3.40;;;15.20;99.90;;;;;;5009369;28;20049;-85
2021/09/20 01:55:01;;;;;;;6.25;2.92;;;15.20;99.90;;;;;;5043115;28;20026;-87
2021/09/20 01:57:38;;;;;;;14.05;4.70;;;15.20;99.90;;;;;;5039885;28;20053;-88
2021/09/20 02:00:10;;;;;;;6.80;3.47;;;15.20;99.90;;;;;;5012086;28;20050;-91
2021/09/20 02:02:41;;;;;;;6.32;3.30;;;15.70;99.90;;;;;;5003450;28;20054;-90
2021/09/20 02:05:24;;;;;;;6.93;3.28;;;15.20;99.90;;;;;;4994909;28;20072;-86
2021/09/20 02:08:02;;;;;;;6.47;3.75;;;15.10;99.90;;;;;;5013950;28;20054;-89
2021/09/20 02:11:48;;;;;;;6.88;2.80;;;15.30;99.90;;;;;;5010449;28;20058;-87
2021/09/20 02:14:28;;;;;;;8.35;2.70;;;15.10;99.90;;;;;;5003855;28;20053;-89
2021/09/20 02:17:08;;;;;;;5.95;3.03;;;14.40;99.90;;;;;;5024970;28;20042;-89
2021/09/20 02:20:04;;;;;;;6.65;3.05;;;15.10;99.90;;;;;;5018079;28;20054;-90
2021/09/20 02:23:01;;;;;;;8.63;2.78;;;15.10;99.90;;;;;;5024097;28;20050;-91
2021/09/20 02:25:51;;;;;;;7.22;2.80;;;15.10;99.90;;;;;;5020158;28;20057;-91
2021/09/20 02:28:48;;;;;;;8.15;2.88;;;15.00;99.90;;;;;;5037994;28;20049;-91
2021/09/20 02:31:17;;;;;;;9.55;3.17;;;15.00;99.90;;;;;;5032532;28;20034;-89
2021/09/20 02:33:51;;;;;;;7.65;3.30;;;15.00;99.90;;;;;;5015226;28;20038;-90
2021/09/20 02:36:23;;;;;;;7.95;2.55;;;15.00;99.90;;;;;;5021337;28;20060;-90
2021/09/20 02:38:51;;;;;;;10.10;2.95;;;15.00;99.90;;;;;;5014068;28;20046;-89
2021/09/20 02:41:20;;;;;;;4.90;2.67;;;15.00;99.90;;;;;;5033964;28;20320;-87
2021/09/20 02:43:48;;;;;;;7.55;2.88;;;15.00;99.90;;;;;;5000124;28;20061;-88
2021/09/20 02:46:16;;;;;;;7.40;2.55;;;15.00;99.90;;;;;;5012110;28;20057;-86
2021/09/20 02:48:45;;;;;;;8.95;3.83;;;15.00;99.90;;;;;;5028869;28;20350;-87
2021/09/20 02:51:13;;;;;;;7.63;3.83;;;15.00;99.90;;;;;;5029050;28;20042;-85
2021/09/20 02:53:43;;;;;;;4.32;2.47;;;15.00;99.90;;;;;;5031994;28;20056;-87
2021/09/20 02:56:13;;;;;;;7.05;3.40;;;15.00;99.90;;;;;;5012422;28;20073;-87
2021/09/20 02:58:42;;;;;;;4.63;2.85;;;15.00;99.90;;;;;;5012189;28;20050;-90
2021/09/20 03:01:20;;;;;;;9.60;3.03;;;15.00;99.90;;;;;;5016575;28;20048;-89
2021/09/20 03:03:48;;;;;;;5.72;2.85;;;15.00;99.90;;;;;;5012922;28;20046;-89
2021/09/20 03:06:19;;;;;;;5.63;2.30;;;15.00;99.90;;;;;;4997167;28;20050;-85
2021/09/20 03:08:47;;;;;;;6.32;2.33;;;14.90;99.90;;;;;;5029153;28;20046;-86
2021/09/20 03:11:22;;;;;;;10.70;2.50;;;14.90;99.90;;;;;;5013061;28;20046;-88
2021/09/20 03:13:52;;;;;;;4.28;2.47;;;14.90;99.90;;;;;;4986313;28;20054;-87
2021/09/20 03:16:22;;;;;;;7.65;2.90;;;14.90;99.90;;;;;;5011230;28;20038;-88
2021/09/20 03:18:54;;;;;;;12.65;4.10;;;14.90;99.90;;;;;;4993687;28;20053;-91
2021/09/20 03:21:26;;;;;;;9.73;2.67;;;14.90;99.90;;;;;;4993116;28;20038;-89
2021/09/20 03:24:09;;;;;;;7.90;2.53;;;14.90;99.90;;;;;;5029550;28;20054;-86
2021/09/20 03:26:38;;;;;;;4.53;2.33;;;14.80;99.90;;;;;;5027248;28;20052;-87
2021/09/20 03:29:07;;;;;;;5.05;2.70;;;14.80;99.90;;;;;;5016215;28;20046;-90
2021/09/20 03:31:35;;;;;;;8.90;2.53;;;14.80;99.90;;;;;;5030298;28;20046;-86
2021/09/20 03:34:38;;;;;;;7.88;2.10;;;14.80;99.90;;;;;;5016930;28;20072;-88
2021/09/20 03:37:16;;;;;;;7.20;2.95;;;14.70;99.90;;;;;;5024880;28;20048;-90
2021/09/20 03:39:46;;;;;;;7.97;2.22;;;14.70;99.90;;;;;;5023773;28;20049;-89
2021/09/20 03:42:23;;;;;;;7.97;2.40;;;14.70;99.90;;;;;;5036583;28;20042;-91
2021/09/20 03:45:10;;;;;;;7.78;2.92;;;14.70;99.90;;;;;;4998938;28;20053;-89
2021/09/20 03:47:52;;;;;;;7.35;1.80;;;14.70;99.90;;;;;;5011454;28;20060;-89
2021/09/20 03:50:33;;;;;;;6.82;2.13;;;14.70;99.90;;;;;;5021674;28;20054;-88
2021/09/20 03:53:20;;;;;;;5.78;3.63;;;14.70;99.90;;;;;;5030289;28;20045;-89
2021/09/20 03:55:53;;;;;;;5.13;2.63;;;14.70;99.90;;;;;;5012996;28;20046;-86
2021/09/20 03:58:21;;;;;;;7.53;2.55;;;14.70;99.90;;;;;;5012503;28;20058;-87
2021/09/20 04:00:54;;;;;;;6.85;2.63;;;14.70;99.90;;;;;;5014342;28;20038;-88
2021/09/20 04:03:23;;;;;;;10.80;2.38;;;14.60;99.90;;;;;;5024139;28;20046;-87
2021/09/20 04:05:51;;;;;;;6.15;2.70;;;14.60;99.90;;;;;;5044939;28;20046;-87
2021/09/20 04:08:30;;;;;;;3.95;2.00;;;14.60;99.90;;;;;;5025801;28;20069;-89
2021/09/20 04:11:00;;;;;;;7.18;2.67;;;14.50;99.90;;;;;;5014337;28;20052;-87
2021/09/20 04:13:30;;;;;;;6.20;4.13;;;13.60;99.90;;;;;;5010183;28;20049;-89
2021/09/20 04:15:59;;;;;;;7.22;2.20;;;14.00;99.90;;;;;;5008538;28;20056;-87
2021/09/20 04:18:28;;;;;;;4.65;2.50;;;14.40;99.90;;;;;;5011663;28;20052;-89
2021/09/20 04:20:56;;;;;;;6.38;2.58;;;14.30;99.90;;;;;;4987829;28;20054;-88
2021/09/20 04:23:25;;;;;;;7.80;3.65;;;14.30;99.90;;;;;;4993774;28;20049;-90
2021/09/20 04:25:54;;;;;;;7.13;2.67;;;14.20;99.90;;;;;;4996475;28;20058;-90
2021/09/20 04:28:41;;;;;;;7.85;2.78;;;14.20;99.90;;;;;;4994770;28;20068;-88
2021/09/20 04:31:11;;;;;;;4.50;1.98;;;14.30;99.90;;;;;;5025752;28;20089;-88
2021/09/20 04:33:43;;;;;;;4.75;2.10;;;14.10;99.90;;;;;;5028254;28;20057;-90
2021/09/20 04:36:11;;;;;;;7.43;2.30;;;14.00;99.90;;;;;;5037067;28;20042;-88
2021/09/20 04:38:42;;;;;;;11.70;2.97;;;14.00;99.90;;;;;;5012077;28;20060;-86
2021/09/20 04:41:13;;;;;;;7.70;3.08;;;14.00;99.90;;;;;;4998265;28;20054;-87
2021/09/20 04:43:43;;;;;;;4.90;2.38;;;14.00;99.90;;;;;;5008731;28;20046;-86
2021/09/20 04:46:11;;;;;;;8.77;2.25;;;13.90;99.90;;;;;;5007372;28;20053;-89
2021/09/20 04:48:42;;;;;;;9.98;2.80;;;13.90;99.90;;;;;;5031758;28;20057;-86
2021/09/20 04:51:12;;;;;;;8.00;2.25;;;13.90;99.90;;;;;;5019626;28;20058;-87
2021/09/20 04:53:45;;;;;;;6.82;2.53;;;13.80;99.90;;;;;;5023970;28;20042;-90
2021/09/20 04:56:16;;;;;;;;;;;13.80;99.90;;;;;;5010543;28;20050;-89
2021/09/20 04:58:44;;;;;;;8.10;3.65;;;13.80;99.90;;;;;;5032804;28;19921;-86
2021/09/20 05:01:16;;;;;;;4.03;2.58;;;13.80;99.90;;;;;;5031795;28;20146;-89
2021/09/20 05:03:46;;;;;;;6.93;2.53;;;13.70;99.90;;;;;;5009601;28;20053;-90
2021/09/20 05:06:14;;;;;;;9.70;2.78;;;13.70;99.90;;;;;;5027000;28;20056;-87
2021/09/20 05:08:42;;;;;;;9.75;2.80;;;13.70;99.90;;;;;;5025949;28;20053;-88
2021/09/20 05:11:14;;;;;;;20.65;4.30;;;13.70;99.90;;;;;;5005239;28;20062;-86
2021/09/20 05:13:43;;;;;;;13.52;3.85;;;13.70;99.90;;;;;;5020531;28;20059;-90
2021/09/20 05:16:12;;;;;;;14.30;3.40;;;13.70;99.90;;;;;;5004715;28;20058;-90
2021/09/20 05:18:41;;;;;;;6.55;2.85;;;13.70;99.90;;;;;;5030796;28;20059;-87
2021/09/20 05:21:11;;;;;;;14.43;3.78;;;13.70;99.90;;;;;;5012186;28;20046;-90
2021/09/20 05:23:39;;;;;;;7.85;2.78;;;13.70;99.90;;;;;;5034659;28;20038;-88
2021/09/20 05:26:07;;;;;;;9.90;2.97;;;13.70;99.90;;;;;;5036556;28;20053;-90
2021/09/20 05:28:39;;;;;;;10.27;3.45;;;13.60;99.90;;;;;;5024784;28;20042;-89
2021/09/20 05:31:33;;;;;;;8.23;3.58;;;13.70;99.90;;;;;;5021397;28;20042;-88
2021/09/20 05:34:02;;;;;;;7.95;3.85;;;13.60;99.90;;;;;;4980879;28;20055;-85
2021/09/20 05:36:44;;;;;;;10.90;3.80;;;13.60;99.90;;;;;;5014298;28;20042;-87
2021/09/20 05:39:21;;;;;;;12.52;6.07;;;13.60;99.90;;;;;;4994047;28;20061;-85
2021/09/20 05:41:56;;;;;;;8.15;3.83;;;13.60;99.90;;;;;;4996895;28;20042;-87
2021/09/20 05:44:31;;;;;;;14.23;3.67;;;13.60;99.90;;;;;;4994038;28;20056;-88
2021/09/20 05:47:00;;;;;;;10.65;3.95;;;13.60;99.90;;;;;;4993687;28;20038;-87
2021/09/20 05:49:30;;;;;;;18.45;4.53;;;13.60;99.90;;;;;;5008897;28;20057;-87
2021/09/20 05:51:58;;;;;;;11.98;4.38;;;12.10;99.90;;;;;;5011259;28;20050;-87
2021/09/20 05:54:29;;;;;;;14.75;3.90;;;13.60;99.90;;;;;;5012502;28;20038;-85
2021/09/20 05:57:08;;;;;;;13.90;7.15;;;13.60;99.90;;;;;;5020278;28;20034;-88
2021/09/20 05:59:43;;;;;;;15.68;5.22;;;13.60;99.90;;;;;;4991585;28;20059;-90
2021/09/20 06:02:24;;;;;;;14.52;6.78;;;13.60;99.90;;;;;;4994506;28;20054;-87
2021/09/20 06:05:41;;;;;;;16.85;5.40;;;13.70;99.90;;;;;;4984885;28;20046;-88
2021/09/20 06:08:19;;;;;;;17.95;6.18;;;13.80;99.90;;;;;;4992309;28;20042;-89
2021/09/20 06:10:49;;;;;;;16.58;7.28;;;13.70;99.90;;;;;;4995541;28;20057;-85
2021/09/20 06:13:17;;;;;;;19.92;7.18;;;13.70;99.90;;;;;;5001450;28;20046;-88
2021/09/20 06:15:50;;;;;;;24.33;6.80;;;13.70;99.90;;;;;;5043596;23;20049;-87
2021/09/20 06:18:38;;;;;;;16.42;6.38;;;13.70;99.90;;;;;;5090406;28;20040;-91
2021/09/20 06:21:21;;;;;;;18.50;6.43;;;13.80;99.90;;;;;;5076485;28;20053;-89
2021/09/20 06:24:00;;;;;;;15.85;7.25;;;13.80;99.90;;;;;;5280322;22;20046;-89
2021/09/20 06:26:34;;;;;;;23.27;6.93;;;13.80;99.90;;;;;;5099176;28;20042;-88
2021/09/20 06:29:10;;;;;;;15.57;5.65;;;13.90;99.90;;;;;;5106670;22;20635;-87
2021/09/20 06:31:40;;;;;;;15.82;6.72;;;13.90;99.90;;;;;;5084902;28;20464;-88
2021/09/20 06:34:10;;;;;;;18.80;5.25;;;14.10;99.90;;;;;;5096623;28;20564;-87
2021/09/20 06:36:44;;;;;;;14.45;5.72;;;14.00;99.90;;;;;;5045698;28;20042;-88
2021/09/20 06:39:16;;;;;;;;;;;14.00;99.90;;;;;;5054526;28;20051;-83
2021/09/20 06:41:47;;;;;;;16.10;6.95;;;15.20;99.90;;;;;;5012366;28;19933;-87
2021/09/20 06:44:16;;;;;;;13.45;6.05;;;14.10;99.90;;;;;;5073452;28;20041;-86
2021/09/20 06:46:49;;;;;;;15.20;6.68;;;14.10;99.90;;;;;;5050899;28;20065;-86
2021/09/20 06:49:23;;;;;;;17.42;5.65;;;14.10;99.90;;;;;;5046731;28;20061;-86
2021/09/20 06:51:54;;;;;;;12.70;5.75;;;14.20;99.90;;;;;;5054308;28;20072;-85
2021/09/20 06:54:22;;;;;;;13.10;6.18;;;14.20;99.90;;;;;;5058004;28;20074;-85
2021/09/20 06:56:51;;;;;;;18.63;7.53;;;14.20;99.90;;;;;;5057396;28;20041;-85
2021/09/20 06:59:19;;;;;;;18.88;7.35;;;14.20;99.90;;;;;;5089129;28;20040;-86
2021/09/20 07:01:47;;;;;;;15.07;6.03;;;14.20;99.90;;;;;;5096190;28;20047;-87
2021/09/20 07:04:17;;;;;;;15.77;6.47;;;14.20;99.90;;;;;;5054247;28;20044;-84
2021/09/20 07:06:45;;;;;;;14.38;6.22;;;14.30;99.90;;;;;;5089895;28;20051;-85
2021/09/20 07:09:15;;;;;;;14.50;6.82;;;14.30;99.90;;;;;;5108995;28;20055;-85
2021/09/20 07:11:48;;;;;;;19.15;6.60;;;14.30;99.90;;;;;;5113940;28;20039;-85
2021/09/20 07:14:18;;;;;;;17.30;7.20;;;14.30;99.90;;;;;;5079723;28;20055;-90
2021/09/20 07:16:49;;;;;;;19.50;7.07;;;14.40;99.90;;;;;;5098843;28;20174;-90
2021/09/20 07:19:19;;;;;;;16.83;7.28;;;14.40;99.90;;;;;;5082336;28;20458;-82
2021/09/20 07:21:47;;;;;;;17.95;5.80;;;14.40;99.90;;;;;;5100340;28;20054;-84
2021/09/20 07:24:19;;;;;;;19.48;6.38;;;14.40;99.90;;;;;;5083058;28;20521;-85
2021/09/20 07:26:49;;;;;;;18.65;7.95;;;14.40;99.90;;;;;;5100855;28;20055;-85
2021/09/20 07:29:18;;;;;;;17.92;6.38;;;13.80;99.90;;;;;;5082205;28;20051;-85
2021/09/20 07:31:50;;;;;;;16.80;6.95;;;14.40;99.90;;;;;;5057506;28;20053;-87
2021/09/20 07:34:24;;;;;;;16.88;7.47;;;14.40;99.90;;;;;;5081231;28;20040;-84
2021/09/20 07:36:53;;;;;;;17.02;8.32;;;14.40;99.90;;;;;;5077678;28;20121;-84
2021/09/20 07:40:15;;;;;;;16.35;6.88;;;14.40;99.90;;;;;;5060831;28;20033;-84
2021/09/20 07:42:54;;;;;;;23.75;7.68;;;14.50;99.90;;;;;;5080040;28;20055;-85
2021/09/20 07:45:29;;;;;;;19.40;9.32;;;14.50;99.90;;;;;;5057375;28;20040;-85
2021/09/20 07:47:57;;;;;;;17.58;8.00;;;14.50;99.90;;;;;;5067820;28;20045;-85
2021/09/20 07:50:26;;;;;;;23.90;8.95;;;14.50;99.90;;;;;;5084240;28;20048;-84
2021/09/20 07:52:55;;;;;;;18.70;8.30;;;14.50;99.90;;;;;;5054547;28;20063;-84
2021/09/20 07:55:25;;;;;;;24.08;10.73;;;14.50;99.90;;;;;;5078027;28;20044;-83
2021/09/20 07:57:55;;;;;;;23.92;8.45;;;14.50;99.90;;;;;;5087392;28;20052;-84
2021/09/20 08:00:23;;;;;;;23.73;8.05;;;14.60;99.90;;;;;;5059805;28;20048;-83
2021/09/20 08:02:51;;;;;;;21.60;8.48;;;14.60;99.90;;;;;;5079306;28;20064;-84
2021/09/20 08:05:20;;;;;;;24.95;8.32;;;14.60;99.90;;;;;;5088306;28;20040;-84
2021/09/20 08:07:51;;;;;;;25.30;8.50;;;14.70;99.90;;;;;;5087165;28;20036;-85
2021/09/20 08:10:19;;;;;;;22.02;7.55;;;14.70;99.90;;;;;;5075097;28;20051;-85
2021/09/20 08:12:50;;;;;;;21.88;8.45;;;14.70;99.90;;;;;;5082712;28;20036;-85
2021/09/20 08:15:25;;;;;;;18.50;6.57;;;14.70;99.90;;;;;;5094949;28;20049;-85
2021/09/20 08:17:56;;;;;;;31.70;7.85;;;14.70;99.90;;;;;;5066390;28;20063;-85
2021/09/20 08:20:31;;;;;;;17.60;6.97;;;14.70;99.90;;;;;;5059307;28;20066;-86
2021/09/20 08:23:01;;;;;;;19.58;7.10;;;14.70;99.90;;;;;;5081957;28;20052;-83
2021/09/20 08:25:31;;;;;;;19.27;8.13;;;14.70;99.90;;;;;;5091978;28;20052;-85
2021/09/20 08:28:03;;;;;;;15.45;6.53;;;14.70;99.90;;;;;;5093672;28;20048;-85
2021/09/20 08:30:43;;;;;;;25.95;9.00;;;14.70;99.90;;;;;;5078479;28;20073;-84
2021/09/20 08:33:11;;;;;;;25.38;7.55;;;14.70;99.90;;;;;;5089220;28;20054;-84
2021/09/20 08:35:48;;;;;;;17.40;7.65;;;14.70;99.90;;;;;;5095974;28;20114;-84
2021/09/20 08:38:16;;;;;;;27.52;10.32;;;14.70;99.90;;;;;;5063475;28;20048;-85
2021/09/20 08:40:46;;;;;;;19.33;8.23;;;14.70;99.90;;;;;;5118435;28;20047;-85
2021/09/20 08:43:21;;;;;;;16.83;7.95;;;14.70;99.90;;;;;;5089457;28;20044;-85
2021/09/20 08:45:49;;;;;;;20.60;7.90;;;14.70;99.90;;;;;;5082955;28;20058;-84
2021/09/20 08:48:17;;;;;;;28.42;8.70;;;14.70;99.90;;;;;;5112530;28;20064;-86
2021/09/20 08:50:52;;;;;;;20.95;8.32;;;14.80;99.90;;;;;;5097788;28;20027;-84
2021/09/20 08:53:23;;;;;;;25.67;8.38;;;14.80;99.90;;;;;;5077277;28;20047;-84
2021/09/20 08:55:51;;;;;;;20.75;9.02;;;14.80;99.90;;;;;;5101768;28;20040;-85
2021/09/20 08:58:21;;;;;;;20.73;8.67;;;14.80;99.90;;;;;;5108747;28;20053;-85
2021/09/20 09:00:49;;;;;;;29.30;12.02;;;14.80;99.90;;;;;;5093524;28;20301;-84
2021/09/20 09:03:28;;;;;;;19.45;8.98;;;14.80;99.90;;;;;;5086021;28;20025;-84
2021/09/20 09:05:58;;;;;;;22.55;10.52;;;14.80;99.90;;;;;;5109496;28;20039;-83
2021/09/20 09:08:36;;;;;;;22.60;10.02;;;14.80;99.90;;;;;;5077147;28;20051;-87
2021/09/20 09:11:15;;;;;;;26.13;10.32;;;14.90;99.90;;;;;;5083883;28;20051;-82
2021/09/20 09:13:47;;;;;;;26.40;10.75;;;14.90;99.90;;;;;;5082603;28;20056;-81
2021/09/20 09:16:27;;;;;;;24.15;12.60;;;14.90;99.90;;;;;;5109231;28;20195;-83
2021/09/20 09:19:08;;;;;;;26.17;12.27;;;15.00;99.90;;;;;;5090309;28;20051;-82
2021/09/20 09:21:44;;;;;;;22.92;10.15;;;15.00;99.90;;;;;;5095827;28;20052;-84
2021/09/20 09:24:20;;;;;;;30.10;12.45;;;15.00;99.90;;;;;;5074775;28;20059;-82
2021/09/20 09:26:55;;;;;;;27.20;12.13;;;15.10;99.90;;;;;;5081365;28;20063;-83
2021/09/20 09:29:28;;;;;;;32.40;12.27;;;15.10;99.90;;;;;;5068845;28;20060;-87
2021/09/20 09:31:59;;;;;;;31.02;12.57;;;15.10;99.90;;;;;;5095043;28;20052;-85
2021/09/20 09:34:30;;;;;;;26.38;12.63;;;15.20;99.90;;;;;;5085994;28;20040;-84
2021/09/20 09:37:10;;;;;;;27.98;13.55;;;15.20;99.90;;;;;;5088730;28;20062;-83
2021/09/20 09:39:40;;;;;;;26.70;13.48;;;15.20;99.90;;;;;;5096207;28;20044;-84
2021/09/20 09:42:29;;;;;;;29.75;13.85;;;15.20;99.90;;;;;;5067109;28;20052;-83
2021/09/20 09:45:16;;;;;;;25.95;11.45;;;15.30;99.90;;;;;;5073186;28;20598;-85
2021/09/20 09:47:46;;;;;;;28.38;12.52;;;15.40;99.90;;;;;;5070804;28;20048;-84
2021/09/20 09:50:23;;;;;;;26.23;12.98;;;14.80;99.90;;;;;;5069913;28;20058;-86
2021/09/20 09:52:54;;;;;;;32.13;12.82;;;15.40;99.90;;;;;;5087081;28;20050;-84
2021/09/20 09:55:25;;;;;;;22.00;11.57;;;15.40;99.90;;;;;;5056479;28;20048;-84
2021/09/20 09:57:54;;;;;;;24.92;11.75;;;15.50;99.90;;;;;;5055901;28;20050;-85
2021/09/20 10:00:23;;;;;;;22.83;10.80;;;15.50;99.90;;;;;;5085925;28;20056;-84
2021/09/20 10:02:51;;;;;;;27.70;11.63;;;15.60;99.90;;;;;;5084298;28;20052;-83
2021/09/20 10:05:26;;;;;;;28.48;13.07;;;15.60;99.90;;;;;;5106880;28;20036;-84
2021/09/20 10:07:57;;;;;;;35.50;12.88;;;15.70;99.90;;;;;;5085121;28;20059;-83
2021/09/20 10:10:51;;;;;;;27.45;13.00;;;16.20;99.90;;;;;;5080953;28;20052;-83
2021/09/20 10:13:24;;;;;;;21.20;10.07;;;15.80;99.90;;;;;;5092367;28;20044;-83
2021/09/20 10:15:53;;;;;;;25.17;12.23;;;15.80;99.90;;;;;;5073375;28;20059;-83
2021/09/20 10:18:22;;;;;;;25.13;11.90;;;15.80;99.90;;;;;;5077891;28;20044;-83
2021/09/20 10:20:51;;;;;;;25.55;11.77;;;15.90;99.90;;;;;;5084546;28;20047;-84
2021/09/20 10:23:20;;;;;;;24.25;12.88;;;15.90;99.90;;;;;;5087823;28;20062;-83
2021/09/20 10:25:48;;;;;;;26.98;10.73;;;15.90;99.90;;;;;;5103592;28;20048;-84
2021/09/20 10:28:16;;;;;;;25.98;12.00;;;16.00;99.90;;;;;;5085038;28;20043;-83
2021/09/20 10:30:46;;;;;;;27.60;11.27;;;16.00;99.90;;;;;;5094954;28;20044;-82
2021/09/20 10:33:26;;;;;;;21.17;11.02;;;16.00;99.90;;;;;;5096703;28;20036;-84
2021/09/20 10:35:55;;;;;;;28.83;11.18;;;16.00;99.90;;;;;;5066673;28;20058;-84
2021/09/20 10:38:30;;;;;;;21.02;10.68;;;16.10;99.90;;;;;;5075740;28;20040;-83
2021/09/20 10:41:17;;;;;;;23.65;11.05;;;16.20;99.90;;;;;;5115841;28;20048;-83
2021/09/20 10:43:50;;;;;;;21.55;10.43;;;16.20;99.90;;;;;;5071794;28;20040;-84
2021/09/20 10:46:41;;;;;;;24.92;10.40;;;16.30;99.90;;;;;;5090119;28;20055;-84
2021/09/20 10:49:21;;;;;;;23.77;10.93;;;16.40;99.90;;;;;;5089352;28;20059;-83
2021/09/20 10:52:02;;;;;;;20.92;9.65;;;16.50;99.90;;;;;;5074737;28;20078;-83
2021/09/20 10:54:30;;;;;;;;;;;16.40;99.90;;;;;;5107045;28;20044;-84
2021/09/20 10:57:17;;;;;;;17.95;9.20;;;16.60;99.90;;;;;;5088677;28;19924;-83
2021/09/20 10:59:46;;;;;;;22.05;9.73;;;16.60;99.90;;;;;;5071865;28;20141;-84
2021/09/20 11:02:27;;;;;;;25.13;11.65;;;16.70;99.90;;;;;;5097712;28;20398;-83
2021/09/20 11:05:08;;;;;;;22.00;11.55;;;16.80;99.90;;;;;;5081738;28;20063;-84
2021/09/20 11:07:50;;;;;;;30.65;11.88;;;16.90;99.90;;;;;;5065015;28;20063;-84
2021/09/20 11:10:30;;;;;;;20.48;11.88;;;15.70;99.90;;;;;;5100760;28;20036;-84
2021/09/20 11:13:07;;;;;;;21.52;10.70;;;17.20;99.90;;;;;;5103867;28;20047;-84
2021/09/20 11:15:43;;;;;;;18.42;10.20;;;17.30;99.90;;;;;;5072777;28;20044;-83
2021/09/20 11:18:35;;;;;;;20.75;10.98;;;17.40;99.90;;;;;;5071784;28;20048;-83
2021/09/20 11:21:07;;;;;;;34.75;12.65;;;16.80;99.90;;;;;;5072093;28;20048;-82
2021/09/20 11:23:39;;;;;;;17.98;10.60;;;17.70;99.90;;;;;;5100621;28;20043;-87
2021/09/20 11:30:24;;;;;;;18.55;9.75;;;17.90;99.90;;;;;;4953417;28;20051;-94
2021/09/20 11:33:46;;;;;;;22.67;9.77;;;18.10;99.90;;;;;;5015768;28;20037;-93
2021/09/20 11:37:22;;;;;;;22.73;11.68;;;18.20;99.90;;;;;;4977321;28;20057;-95
2021/09/20 11:40:13;;;;;;;20.08;11.23;;;18.40;99.90;;;;;;4946891;28;20047;-92
2021/09/20 11:43:28;;;;;;;19.50;10.63;;;18.50;99.90;;;;;;5004667;28;20051;-95
2021/09/20 11:46:21;;;;;;;23.15;11.20;;;18.60;99.90;;;;;;4972686;28;20051;-91
2021/09/20 11:49:38;;;;;;;22.92;11.90;;;18.70;99.90;;;;;;5058447;28;20052;-94
2021/09/20 11:53:00;;;;;;;16.63;9.90;;;18.90;99.90;;;;;;4984459;28;20059;-92
2021/09/20 11:56:07;;;;;;;25.33;13.20;;;18.90;99.90;;;;;;5017215;28;20059;-94
2021/09/20 11:59:08;;;;;;;17.98;8.75;;;19.00;99.90;;;;;;5050975;28;20060;-92
2021/09/20 12:01:57;;;;;;;21.17;10.27;;;19.00;99.90;;;;;;5025727;28;20068;-93
2021/09/20 12:04:53;;;;;;;23.48;10.43;;;19.20;99.90;;;;;;5043004;28;20057;-94
2021/09/20 12:08:07;;;;;;;21.05;9.90;;;19.20;99.90;;;;;;5047614;22;20047;-85
2021/09/20 12:10:48;;;;;;;19.67;10.80;;;19.60;99.90;;;;;;5103376;28;20040;-88
2021/09/20 12:13:57;;;;;;;19.15;10.38;;;19.40;99.90;;;;;;5064603;28;20055;-86
2021/09/20 12:19:58;;;;;;;18.48;9.70;;;19.50;99.90;;;;;;5066768;28;20041;-89
2021/09/20 12:27:11;;;;;;;16.58;8.73;;;19.50;99.90;;;;;;5098085;22;20052;-84
2021/09/20 12:33:56;;;;;;;18.23;10.77;;;19.80;99.90;;;;;;5021182;28;20517;-88
2021/09/20 12:36:35;;;;;;;20.38;11.05;;;19.60;99.90;;;;;;5007754;28;20043;-88
2021/09/20 12:39:15;;;;;;;21.33;10.65;;;20.10;99.90;;;;;;4994110;28;20044;-87
2021/09/20 12:42:09;;;;;;;18.65;9.95;;;19.60;99.90;;;;;;4993748;28;20030;-85
2021/09/20 12:45:45;;;;;;;16.27;9.13;;;19.50;99.90;;;;;;4999993;28;20049;-89
2021/09/20 12:52:44;;;;;;;16.80;8.60;;;19.50;99.90;;;;;;5052618;22;20880;-92
2021/09/20 12:56:32;;;;;;;18.15;11.30;;;19.40;99.90;;;;;;4961412;28;20045;-92
2021/09/20 13:00:14;;;;;;;18.88;10.45;;;19.40;99.90;;;;;;5371504;23;20043;-85
2021/09/20 13:03:40;;;;;;;16.80;8.75;;;19.20;99.90;;;;;;5063415;28;20058;-84
2021/09/20 13:06:17;;;;;;;17.35;8.52;;;19.10;99.90;;;;;;5050546;28;20059;-84
2021/09/20 13:12:51;;;;;;;17.23;8.50;;;19.10;99.90;;;;;;4951599;28;20047;-91
2021/09/20 13:15:57;;;;;;;19.25;8.88;;;19.10;99.90;;;;;;4909576;29;20052;-93
2021/09/20 13:19:04;;;;;;;17.60;8.90;;;19.00;99.90;;;;;;4924443;29;20052;-93
2021/09/20 13:22:08;;;;;;;14.30;8.32;;;19.00;99.90;;;;;;4922156;29;20047;-94
2021/09/20 13:26:29;;;;;;;23.60;9.68;;;19.00;99.90;;;;;;4940878;29;20065;-94
2021/09/20 13:29:26;;;;;;;18.05;9.93;;;18.90;99.90;;;;;;4926368;29;20062;-90
2021/09/20 13:32:30;;;;;;;13.85;8.82;;;18.90;99.90;;;;;;4922307;29;20055;-89
2021/09/20 13:35:19;;;;;;;16.30;8.65;;;18.90;99.90;;;;;;4941473;29;20048;-89
2021/09/20 13:37:51;;;;;;;20.35;9.18;;;18.90;99.90;;;;;;4929649;29;20048;-89
2021/09/20 13:40:39;;;;;;;14.85;8.85;;;18.90;99.90;;;;;;4924604;29;20500;-89
2021/09/20 13:43:17;;;;;;;14.95;8.25;;;18.90;99.90;;;;;;4930001;29;20052;-92
2021/09/20 13:45:51;;;;;;;;;;;18.90;99.90;;;;;;4917872;29;20059;-91
2021/09/20 13:48:33;;;;;;;18.42;9.63;;;18.80;99.90;;;;;;4917789;29;19927;-91
2021/09/20 13:51:27;;;;;;;16.23;9.95;;;18.80;99.90;;;;;;4931493;29;20062;-92
2021/09/20 13:53:57;;;;;;;17.75;10.02;;;18.80;99.90;;;;;;4940567;29;20051;-89
2021/09/20 13:56:33;;;;;;;19.73;11.00;;;18.80;99.90;;;;;;4907782;29;20039;-89
2021/09/20 13:59:29;;;;;;;20.88;11.93;;;18.70;99.90;;;;;;4917475;29;20036;-90